Flight Number: EUR2243 Duration: 1:15
Departure: Munich Int'l (EDDM) at 07:30 Distance: 393 Nm
Arrival: Roma Fiumicino (LIRF) at 08:45 Equipment: A321

Weather Information
Munchen, Germany (EDDM) 48-21N 011-47E Nov 18, 2017 - 06:20 AM EST / 2017.11.18 1120 UTC
Wind: from the W (260 degrees) at 9 MPH (8 KT):0
Visibility: 3 mile(s):0
Sky conditions: overcast Temperature: 39 F (4 C) Dew Point: 37 F (3 C) Relative Humidity: 93% Pressure (altimeter): 30.15 in. Hg (1021 hPa)
ob: EDDM 181120Z 26008KT 6000 OVC004 04/03 Q1021 BECMG BKN010 cycle: 11
Sunrise: 06:29 Sunset: 15:26 (UTC)

Roma Fiumicino, Italy (LIRF) 41-48N 012-14E 3M Nov 18, 2017 - 06:20 AM EST / 2017.11.18 1120 UTC
Wind: from the NE (050 degrees) at 9 MPH (8 KT):0
Visibility: greater than 7 mile(s):0
Sky conditions: mostly clear Temperature: 60 F (16 C) Dew Point: 44 F (7 C) Relative Humidity: 55% Pressure (altimeter): 29.94 in. Hg (1014 hPa)
ob: LIRF 181120Z 05008KT 9999 FEW025 16/07 Q1014 NOSIG cycle: 11
Sunrise: 06:08 Sunset: 15:44 (UTC)

TAF:2017/11/18 12:24 TAF LIRF 181100Z 1812/1918 33010KT CAVOK BECMG 1816/1818 VRB04KT BECMG 1909/1911 30010KT

Previous Pireps for this route
Date Aircraft Flight time Fuel used Landing rate On time
2012-08-12MD-8101.47-1-220Yes
2012-10-14MD-8101.499572-308Yes
2012-12-20MD-8101.299127-304Yes
2013-01-14MD-811.1541420No
2013-01-22MD-811.139030.70No
2013-01-26B1900D02.151792-258Charter
2013-03-03MD-811.0578580No
2013-11-02A3211.17118880No
2014-05-06A3211.48160000No
2014-11-24A32101.269509-186Charter
2015-02-22B73701.238960-382Charter
2015-03-21A3211.2474580Charter
2015-04-05A32101.2310304-443Yes
2015-04-19A32101.248876-227Yes
2015-04-25A32101.217750-321Yes
2015-05-02B73701.4111534-570Charter
2015-05-07MD-811.1592780Yes
2015-05-08A32101.29-6380-210Yes
2015-05-15A32101.411741-479Yes
2015-05-21MD-811.2389570Yes
2015-12-15A32101.239937-32Charter
2016-05-21MD-8101.2710118-169Yes
2016-08-27A32101.187520-324Yes
2017-01-11B7372.1080000Charter
2017-01-13B73702.148792-6950Charter
(pireps marked green are flown by you)

Route map